createdAt,value
2019-06-01T00:01:38.249Z,77.19
2019-06-01T00:04:10.578Z,77.10
2019-06-01T00:06:43.363Z,77.64
2019-06-01T00:09:14.690Z,77.25
2019-06-01T00:11:47.493Z,77.75
2019-06-01T00:14:19.350Z,77.83
2019-06-01T00:16:50.932Z,77.68
2019-06-01T00:19:22.773Z,78.12
2019-06-01T00:21:54.373Z,77.86
2019-06-01T00:24:25.925Z,77.86
2019-06-01T00:26:57.622Z,77.63
2019-06-01T00:29:29.261Z,78.21
2019-06-01T00:32:00.792Z,78.91
2019-06-01T00:34:32.279Z,79.81
2019-06-01T00:37:04.174Z,80.00
2019-06-01T00:39:35.999Z,79.99
2019-06-01T00:42:07.419Z,80.41
2019-06-01T00:44:38.754Z,80.42
2019-06-01T00:47:10.273Z,80.52
2019-06-01T00:49:42.669Z,80.07
2019-06-01T00:52:14.411Z,80.15
2019-06-01T00:54:47.257Z,80.27
2019-06-01T00:57:21.969Z,80.03
2019-06-01T00:59:53.200Z,80.03
2019-06-01T01:02:24.670Z,79.83
2019-06-01T01:05:11.963Z,79.83
2019-06-01T01:07:44.544Z,79.82
2019-06-01T01:10:16.602Z,79.91
2019-06-01T01:13:05.279Z,80.20
2019-06-01T01:15:37.375Z,79.77
2019-06-01T01:18:09.854Z,80.04
2019-06-01T01:20:41.346Z,80.18
2019-06-01T01:23:13.261Z,79.71
2019-06-01T01:25:44.830Z,79.39
2019-06-01T01:28:16.378Z,79.46
2019-06-01T01:31:03.022Z,79.50
2019-06-01T01:33:21.077Z,79.85
2019-06-01T01:35:54.221Z,79.12
2019-06-01T01:38:25.037Z,79.09
2019-06-01T01:40:56.695Z,78.53
2019-06-01T01:43:28.279Z,78.55
2019-06-01T01:46:00.096Z,78.33
2019-06-01T01:48:31.706Z,78.09
2019-06-01T01:51:03.712Z,77.71
2019-06-01T01:53:35.467Z,78.25
2019-06-01T01:56:07.139Z,78.18
2019-06-01T01:58:38.709Z,77.57
2019-06-01T02:01:22.294Z,77.48
2019-06-01T02:03:42.248Z,77.37
2019-06-01T02:06:13.818Z,77.40
2019-06-01T02:08:45.109Z,77.18
2019-06-01T02:11:16.498Z,77.04
2019-06-01T02:13:48.155Z,76.70
2019-06-01T02:16:19.553Z,76.75
2019-06-01T02:18:53.835Z,76.46
2019-06-01T02:21:24.439Z,76.25
2019-06-01T02:23:56.947Z,75.94
2019-06-01T02:26:28.607Z,76.15
2019-06-01T02:29:01.467Z,75.90
2019-06-01T02:31:41.549Z,75.77
2019-06-01T02:34:06.193Z,75.91
2019-06-01T02:36:39.461Z,75.74
2019-06-01T02:39:12.839Z,75.98
2019-06-01T02:41:44.430Z,76.15
2019-06-01T02:44:16.394Z,75.99
2019-06-01T02:46:47.970Z,75.73
2019-06-01T02:49:19.203Z,76.03
2019-06-01T02:51:50.881Z,76.81
2019-06-01T02:54:22.414Z,76.85
2019-06-01T02:56:53.965Z,76.91
2019-06-01T02:59:25.373Z,77.07
2019-06-01T03:02:05.982Z,77.38
2019-06-01T03:04:30.887Z,77.47
2019-06-01T03:07:05.523Z,78.35
2019-06-01T03:09:39.236Z,79.06
2019-06-01T03:12:13.508Z,79.06
2019-06-01T03:14:47.785Z,79.13
2019-06-01T03:17:21.390Z,79.94
2019-06-01T03:19:55.278Z,80.59
2019-06-01T03:22:28.041Z,81.25
2019-06-01T03:25:02.083Z,81.72
2019-06-01T03:27:36.862Z,81.93
2019-06-01T03:30:14.521Z,82.18
2019-06-01T03:32:44.115Z,82.46
2019-06-01T03:35:16.787Z,82.15
2019-06-01T03:37:48.354Z,81.79
2019-06-01T03:40:24.038Z,81.77
2019-06-01T03:42:54.002Z,81.81
2019-06-01T03:45:25.660Z,81.93
2019-06-01T03:47:57.166Z,81.50
2019-06-01T03:50:28.747Z,81.25
2019-06-01T03:53:01.655Z,81.50
2019-06-01T03:55:33.454Z,81.37
2019-06-01T03:58:05.077Z,80.95
2019-06-01T04:00:36.829Z,80.71
2019-06-01T04:03:28.308Z,80.65
2019-06-01T04:06:01.139Z,80.55
2019-06-01T04:08:32.903Z,80.64
2019-06-01T04:11:05.660Z,80.56
2019-06-01T04:13:37.173Z,80.40
2019-06-01T04:16:09.917Z,80.30
2019-06-01T04:18:51.704Z,79.62
2019-06-01T04:21:23.067Z,79.62
2019-06-01T04:23:54.838Z,79.85
2019-06-01T04:26:27.780Z,80.13
2019-06-01T04:28:59.314Z,80.04
2019-06-01T04:31:31.105Z,80.25
2019-06-01T04:34:02.868Z,80.08
2019-06-01T04:36:34.283Z,80.14
2019-06-01T04:39:07.422Z,79.89
2019-06-01T04:41:38.912Z,79.77
2019-06-01T04:44:10.573Z,79.92
2019-06-01T04:46:42.169Z,79.75
2019-06-01T04:49:14.949Z,79.69
2019-06-01T04:51:46.676Z,79.22
2019-06-01T04:54:18.180Z,79.05
2019-06-01T04:56:49.982Z,78.31
2019-06-01T04:59:21.561Z,77.73
2019-06-01T05:01:53.040Z,77.69
2019-06-01T05:04:24.614Z,77.44
2019-06-01T05:06:55.982Z,77.78
2019-06-01T05:09:27.509Z,77.09
2019-06-01T05:11:58.988Z,76.52
2019-06-01T05:14:30.516Z,76.15
2019-06-01T05:17:02.022Z,75.20
2019-06-01T05:19:33.976Z,74.27
2019-06-01T05:22:06.426Z,72.24
2019-06-01T05:24:38.234Z,71.76
2019-06-01T05:27:09.464Z,71.35
2019-06-01T05:29:41.167Z,68.97
2019-06-01T05:32:12.918Z,67.33
2019-06-01T05:34:44.309Z,66.10
2019-06-01T05:37:16.658Z,64.04
2019-06-01T05:39:48.201Z,64.98
2019-06-01T05:42:19.705Z,65.32
2019-06-01T05:44:51.064Z,65.06
2019-06-01T05:47:22.585Z,65.22
2019-06-01T05:49:54.047Z,65.71
2019-06-01T05:52:25.571Z,66.15
2019-06-01T05:54:57.202Z,67.96
2019-06-01T05:57:29.031Z,65.72
2019-06-01T06:00:00.714Z,65.18
2019-06-01T06:02:32.269Z,65.60
2019-06-01T06:05:03.957Z,65.39
2019-06-01T06:07:35.688Z,64.75
2019-06-01T06:10:08.160Z,64.84
2019-06-01T06:12:39.925Z,65.42
2019-06-01T06:15:13.481Z,65.48
2019-06-01T06:17:44.984Z,64.66
2019-06-01T06:20:17.829Z,62.89
2019-06-01T06:22:48.441Z,63.93
2019-06-01T06:25:19.790Z,64.46
2019-06-01T06:27:51.123Z,64.90
2019-06-01T06:30:23.096Z,62.80
2019-06-01T06:32:54.563Z,63.46
2019-06-01T06:35:26.079Z,61.88
2019-06-01T06:37:57.656Z,59.93
2019-06-01T06:40:31.971Z,61.13
2019-06-01T06:43:18.406Z,60.55
2019-06-01T06:45:37.341Z,59.97
2019-06-01T06:48:09.052Z,59.62
2019-06-01T06:50:40.698Z,58.14
2019-06-01T06:53:24.388Z,56.49
2019-06-01T06:55:44.419Z,56.83
2019-06-01T06:58:16.013Z,58.08
2019-06-01T07:00:47.890Z,58.91
2019-06-01T07:03:21.014Z,58.12
2019-06-01T07:05:52.751Z,59.48
2019-06-01T07:08:24.237Z,58.71
2019-06-01T07:10:55.894Z,57.73
2019-06-01T07:13:27.660Z,56.08
2019-06-01T07:15:59.544Z,56.54
2019-06-01T07:18:31.918Z,57.15
2019-06-01T07:21:03.518Z,56.91
2019-06-01T07:23:35.368Z,58.87
2019-06-01T07:26:06.850Z,58.91
2019-06-01T07:28:38.594Z,57.55
2019-06-01T07:31:10.602Z,57.94
2019-06-01T07:33:42.254Z,55.78
2019-06-01T07:36:13.994Z,55.33
2019-06-01T07:38:45.694Z,54.48
2019-06-01T07:41:17.298Z,52.78
2019-06-01T07:43:49.066Z,53.30
2019-06-01T07:46:20.873Z,52.44
2019-06-01T07:48:53.631Z,51.33
2019-06-01T07:51:25.244Z,52.45
2019-06-01T07:53:56.775Z,53.14
2019-06-01T07:56:28.697Z,52.89
2019-06-01T07:59:00.553Z,53.29
2019-06-01T08:01:32.894Z,54.18
2019-06-01T08:04:04.427Z,56.24
2019-06-01T08:06:46.239Z,54.58
2019-06-01T08:09:13.111Z,52.77
2019-06-01T08:11:44.513Z,52.10
2019-06-01T08:14:16.020Z,51.43
2019-06-01T08:16:47.772Z,49.98
2019-06-01T08:19:19.159Z,49.40
2019-06-01T08:21:51.019Z,49.60
2019-06-01T08:24:22.418Z,48.12
2019-06-01T08:26:54.073Z,48.24
2019-06-01T08:29:26.642Z,47.10
2019-06-01T08:31:58.182Z,46.38
2019-06-01T08:34:31.099Z,49.23
2019-06-01T08:37:01.626Z,47.84
2019-06-01T08:39:34.200Z,49.51
2019-06-01T08:42:05.808Z,50.27
2019-06-01T08:44:37.315Z,47.58
2019-06-01T08:47:09.053Z,47.69
2019-06-01T08:49:40.541Z,48.74
2019-06-01T08:52:22.183Z,48.69
2019-06-01T08:54:56.465Z,48.28
2019-06-01T08:57:28.294Z,48.68
2019-06-01T08:59:59.944Z,46.97
2019-06-01T09:02:31.258Z,46.30
2019-06-01T09:05:03.112Z,47.35
2019-06-01T09:07:35.150Z,46.87
2019-06-01T09:10:08.113Z,44.96
2019-06-01T09:12:39.676Z,45.74
2019-06-01T09:15:12.947Z,44.76
2019-06-01T09:17:44.532Z,45.07
2019-06-01T09:20:16.479Z,42.67
2019-06-01T09:22:48.355Z,42.11
2019-06-01T09:25:20.003Z,43.61
2019-06-01T09:27:51.505Z,43.47
2019-06-01T09:30:25.878Z,45.24
2019-06-01T09:32:57.542Z,45.56
2019-06-01T09:35:50.146Z,44.00
2019-06-01T09:38:02.426Z,45.06
2019-06-01T09:40:37.348Z,43.07
2019-06-01T09:43:10.046Z,43.81
2019-06-01T09:45:41.731Z,44.86
2019-06-01T09:48:13.225Z,44.35
2019-06-01T09:50:44.697Z,44.29
2019-06-01T09:53:16.563Z,45.81
2019-06-01T09:55:48.477Z,45.20
2019-06-01T09:58:20.075Z,44.87
2019-06-01T10:00:51.752Z,45.73
2019-06-01T10:03:23.494Z,46.46
2019-06-01T10:06:01.946Z,46.45
2019-06-01T10:08:29.325Z,47.18
2019-06-01T10:11:01.059Z,45.42
2019-06-01T10:13:33.395Z,47.45
2019-06-01T10:16:06.054Z,44.78
2019-06-01T10:18:38.792Z,45.06
2019-06-01T10:21:09.702Z,44.39
2019-06-01T10:23:42.750Z,43.27
2019-06-01T10:26:15.738Z,44.34
2019-06-01T10:28:47.099Z,45.73
2019-06-01T10:31:18.844Z,43.73
2019-06-01T10:33:51.599Z,44.03
2019-06-01T10:36:23.775Z,44.74
2019-06-01T10:38:55.196Z,43.02
2019-06-01T10:41:26.749Z,43.37
2019-06-01T10:43:58.490Z,40.76
2019-06-01T10:46:30.094Z,41.03
2019-06-01T10:49:01.691Z,42.04
2019-06-01T10:51:34.060Z,41.00
2019-06-01T10:54:06.166Z,42.12
2019-06-01T10:56:38.505Z,42.37
2019-06-01T10:59:09.867Z,41.35
2019-06-01T11:01:42.625Z,40.72
2019-06-01T11:04:15.303Z,41.88
2019-06-01T11:06:48.827Z,41.89
2019-06-01T11:09:20.104Z,42.18
2019-06-01T11:11:51.817Z,41.23
2019-06-01T11:14:23.375Z,42.22
2019-06-01T11:16:56.600Z,41.80
2019-06-01T11:19:27.850Z,40.55
2019-06-01T11:21:59.230Z,38.52
2019-06-01T11:24:30.740Z,40.21
2019-06-01T11:27:02.326Z,39.98
2019-06-01T11:29:39.606Z,37.91
2019-06-01T11:32:07.448Z,39.70
2019-06-01T11:34:40.245Z,38.53
2019-06-01T11:37:15.485Z,37.47
2019-06-01T11:39:47.123Z,37.75
2019-06-01T11:42:19.872Z,38.55
2019-06-01T11:44:51.827Z,36.76
2019-06-01T11:47:23.466Z,37.70
2019-06-01T11:50:14.924Z,35.15
2019-06-01T11:52:46.498Z,34.03
2019-06-01T11:55:18.210Z,34.79
2019-06-01T11:57:49.731Z,34.22
2019-06-01T12:00:22.488Z,32.86
2019-06-01T12:02:54.067Z,34.03
2019-06-01T12:05:25.728Z,31.63
2019-06-01T12:07:57.235Z,31.63
2019-06-01T12:10:28.756Z,33.57
2019-06-01T12:13:00.168Z,30.53
2019-06-01T12:15:31.656Z,28.95
2019-06-01T12:18:03.163Z,29.04
2019-06-01T12:20:34.415Z,28.14
2019-06-01T12:23:06.149Z,29.80
2019-06-01T12:25:38.235Z,31.35
2019-06-01T12:28:09.892Z,30.67
2019-06-01T12:30:41.585Z,30.07
2019-06-01T12:33:13.181Z,29.73
2019-06-01T12:35:44.468Z,28.68
2019-06-01T12:38:15.925Z,28.61
2019-06-01T12:40:47.429Z,27.97
2019-06-01T12:43:19.180Z,26.59
2019-06-01T12:46:05.443Z,26.01
2019-06-01T12:48:23.901Z,27.23
2019-06-01T12:50:55.459Z,27.01
2019-06-01T12:53:26.890Z,27.92
2019-06-01T12:55:58.640Z,25.91
2019-06-01T12:58:30.004Z,25.61
2019-06-01T13:01:02.823Z,25.09
2019-06-01T13:03:34.745Z,24.77
2019-06-01T13:06:06.369Z,24.65
2019-06-01T13:08:37.807Z,23.89
2019-06-01T13:11:09.114Z,25.85
2019-06-01T13:13:41.224Z,24.41
2019-06-01T13:16:13.348Z,22.77
2019-06-01T13:18:45.345Z,24.98
2019-06-01T13:21:17.072Z,24.04
2019-06-01T13:23:49.664Z,24.35
2019-06-01T13:26:20.273Z,23.87
2019-06-01T13:28:52.629Z,23.61
2019-06-01T13:31:24.227Z,24.16
2019-06-01T13:33:55.840Z,25.02
2019-06-01T13:36:27.893Z,23.75
2019-06-01T13:38:59.655Z,24.44
2019-06-01T13:41:31.494Z,23.43
2019-06-01T13:44:02.934Z,23.72
2019-06-01T13:46:34.632Z,23.46
2019-06-01T13:49:06.421Z,24.30
2019-06-01T13:51:37.864Z,23.29
2019-06-01T13:54:09.891Z,23.09
2019-06-01T13:56:41.422Z,22.97
2019-06-01T13:59:12.784Z,22.22
2019-06-01T14:01:45.018Z,22.86
2019-06-01T14:04:15.884Z,23.80
2019-06-01T14:06:49.009Z,23.35
2019-06-01T14:09:22.056Z,23.75
2019-06-01T14:11:53.551Z,23.48
2019-06-01T14:14:25.533Z,23.47
2019-06-01T14:16:57.070Z,23.74
2019-06-01T14:19:28.482Z,24.47
2019-06-01T14:22:00.026Z,24.78
2019-06-01T14:24:31.566Z,25.61
2019-06-01T14:27:02.933Z,24.99
2019-06-01T14:29:34.690Z,25.54
2019-06-01T14:32:08.433Z,27.21
2019-06-01T14:34:38.689Z,28.58
2019-06-01T14:37:10.528Z,30.43
2019-06-01T14:39:42.286Z,30.41
2019-06-01T14:42:14.067Z,31.19
2019-06-01T14:44:47.066Z,32.15
2019-06-01T14:47:18.948Z,32.77
2019-06-01T14:49:51.651Z,32.77
2019-06-01T14:52:22.235Z,31.91
2019-06-01T14:54:53.813Z,32.78
2019-06-01T14:57:25.447Z,34.09
2019-06-01T14:59:58.229Z,33.69
2019-06-01T15:02:29.937Z,32.68
2019-06-01T15:05:01.843Z,33.09
2019-06-01T15:07:33.578Z,33.84
2019-06-01T15:10:05.822Z,34.45
2019-06-01T15:12:37.513Z,34.20
2019-06-01T15:15:09.806Z,33.32
2019-06-01T15:17:41.616Z,34.78
2019-06-01T15:20:14.839Z,35.49
2019-06-01T15:22:46.377Z,35.18
2019-06-01T15:25:17.953Z,36.09
2019-06-01T15:27:50.621Z,35.53
2019-06-01T15:30:23.521Z,36.00
2019-06-01T15:32:56.183Z,37.50
2019-06-01T15:35:28.927Z,38.28
2019-06-01T15:38:02.149Z,36.85
2019-06-01T15:40:32.503Z,36.71
2019-06-01T15:43:03.905Z,36.72
2019-06-01T15:45:35.760Z,37.71
2019-06-01T15:48:07.491Z,37.80
2019-06-01T15:50:39.041Z,37.92
2019-06-01T15:53:10.268Z,37.45
2019-06-01T15:55:41.826Z,37.19
2019-06-01T15:58:13.436Z,37.92
2019-06-01T16:00:44.983Z,38.86
2019-06-01T16:03:16.474Z,40.18
2019-06-01T16:05:48.239Z,40.66
2019-06-01T16:08:19.718Z,41.86
2019-06-01T16:10:51.245Z,42.77
2019-06-01T16:13:22.676Z,43.25
2019-06-01T16:15:55.322Z,43.61
2019-06-01T16:18:26.908Z,44.26
2019-06-01T16:21:00.156Z,44.32
2019-06-01T16:23:48.815Z,44.84
2019-06-01T16:26:15.383Z,44.67
2019-06-01T16:28:38.280Z,45.38
2019-06-01T16:31:09.635Z,46.38
2019-06-01T16:33:41.314Z,47.22
2019-06-01T16:36:12.768Z,46.37
2019-06-01T16:38:44.222Z,47.20
2019-06-01T16:41:15.762Z,47.10
2019-06-01T16:43:47.331Z,47.61
2019-06-01T16:46:18.790Z,48.28
2019-06-01T16:48:50.405Z,48.09
2019-06-01T16:51:22.225Z,48.31
2019-06-01T16:53:53.735Z,48.00
2019-06-01T16:56:25.421Z,49.32
2019-06-01T16:58:58.157Z,48.88
2019-06-01T17:01:30.050Z,49.30
2019-06-01T17:04:02.567Z,50.65
2019-06-01T17:06:35.176Z,50.50
2019-06-01T17:09:07.952Z,50.56
2019-06-01T17:11:39.416Z,50.89
2019-06-01T17:14:11.065Z,50.87
2019-06-01T17:16:42.956Z,50.88
2019-06-01T17:19:14.471Z,51.25
2019-06-01T17:21:46.205Z,51.42
2019-06-01T17:24:17.892Z,53.96
2019-06-01T17:26:49.396Z,57.01
2019-06-01T17:29:20.823Z,59.76
2019-06-01T17:31:54.726Z,61.93
2019-06-01T17:34:25.796Z,64.26
2019-06-01T17:36:57.211Z,66.15
2019-06-01T17:39:29.230Z,67.41
2019-06-01T17:42:02.376Z,69.13
2019-06-01T17:44:32.769Z,70.16
2019-06-01T17:47:04.632Z,71.65
2019-06-01T17:49:36.702Z,69.82
2019-06-01T17:52:08.125Z,73.09
2019-06-01T17:54:39.356Z,71.50
2019-06-01T17:57:11.441Z,71.77
2019-06-01T17:59:43.073Z,72.96
2019-06-01T18:02:14.314Z,73.79
2019-06-01T18:04:47.085Z,75.53
2019-06-01T18:07:18.576Z,75.52
2019-06-01T18:09:50.084Z,73.87
2019-06-01T18:12:21.504Z,75.57
2019-06-01T18:14:53.392Z,76.31
2019-06-01T18:17:25.090Z,76.38
2019-06-01T18:19:56.379Z,76.02
2019-06-01T18:22:28.027Z,75.72
2019-06-01T18:24:59.570Z,75.98
2019-06-01T18:27:31.198Z,76.97
2019-06-01T18:30:02.927Z,77.83
2019-06-01T18:32:34.682Z,78.76
2019-06-01T18:35:07.119Z,79.28
2019-06-01T18:37:38.622Z,80.76
2019-06-01T18:40:11.776Z,80.86
2019-06-01T18:42:44.509Z,81.28
2019-06-01T18:45:16.734Z,80.60
2019-06-01T18:47:48.285Z,80.22
2019-06-01T18:50:20.436Z,80.41
2019-06-01T18:52:52.815Z,80.84
2019-06-01T18:55:27.536Z,80.36
2019-06-01T18:58:00.661Z,80.12
2019-06-01T19:00:32.417Z,79.54
2019-06-01T19:03:04.552Z,78.89
2019-06-01T19:05:36.021Z,79.67
2019-06-01T19:08:07.558Z,79.67
2019-06-01T19:10:39.123Z,79.39
2019-06-01T19:13:11.620Z,80.18
2019-06-01T19:15:43.256Z,79.53
2019-06-01T19:18:14.847Z,80.36
2019-06-01T19:21:06.501Z,80.09
2019-06-01T19:23:38.070Z,81.22
2019-06-01T19:26:13.055Z,81.14
2019-06-01T19:28:43.028Z,80.73
2019-06-01T19:31:15.273Z,80.65
2019-06-01T19:33:47.270Z,80.50
2019-06-01T19:36:19.225Z,80.32
2019-06-01T19:38:52.046Z,80.95
2019-06-01T19:41:23.479Z,81.40
2019-06-01T19:43:55.005Z,81.80
2019-06-01T19:46:26.611Z,81.94
2019-06-01T19:48:58.146Z,80.32
2019-06-01T19:51:29.536Z,79.51
2019-06-01T19:54:01.029Z,80.23
2019-06-01T19:56:33.002Z,80.76
2019-06-01T19:59:04.369Z,79.88
2019-06-01T20:01:36.028Z,80.58
2019-06-01T20:04:07.614Z,80.75
2019-06-01T20:06:39.341Z,81.33
2019-06-01T20:09:11.036Z,80.70
2019-06-01T20:11:42.788Z,81.87
2019-06-01T20:14:14.269Z,82.28
2019-06-01T20:16:45.906Z,82.01
2019-06-01T20:19:17.840Z,81.32
2019-06-01T20:21:49.688Z,81.90
2019-06-01T20:24:21.444Z,81.60
2019-06-01T20:26:53.182Z,81.78
2019-06-01T20:29:24.761Z,81.76
2019-06-01T20:31:56.515Z,81.67
2019-06-01T20:34:28.416Z,81.48
2019-06-01T20:37:00.027Z,80.83
2019-06-01T20:39:31.517Z,82.52
2019-06-01T20:42:20.292Z,82.40
2019-06-01T20:44:35.047Z,82.35
2019-06-01T20:47:06.333Z,82.54
2019-06-01T20:49:37.752Z,82.42
2019-06-01T20:52:09.461Z,81.83
2019-06-01T20:54:40.862Z,81.63
2019-06-01T20:57:13.327Z,82.03
2019-06-01T20:59:44.871Z,81.63
2019-06-01T21:02:17.667Z,81.29
2019-06-01T21:04:49.448Z,80.94
2019-06-01T21:07:21.878Z,80.89
2019-06-01T21:09:53.608Z,80.29
2019-06-01T21:12:44.409Z,80.81
2019-06-01T21:14:57.187Z,80.66
2019-06-01T21:17:28.748Z,80.86
2019-06-01T21:20:04.343Z,80.79
2019-06-01T21:22:32.624Z,81.09
2019-06-01T21:25:04.234Z,81.17
2019-06-01T21:27:35.708Z,81.44
2019-06-01T21:30:07.502Z,81.05
2019-06-01T21:32:39.001Z,81.47
2019-06-01T21:35:10.677Z,79.96
2019-06-01T21:37:42.117Z,80.01
2019-06-01T21:40:15.296Z,80.16
2019-06-01T21:43:00.964Z,79.53
2019-06-01T21:45:21.594Z,79.64
2019-06-01T21:47:53.802Z,79.96
2019-06-01T21:50:25.964Z,79.74
2019-06-01T21:52:57.366Z,80.41
2019-06-01T21:55:31.879Z,80.07
2019-06-01T21:58:03.360Z,80.35
2019-06-01T22:00:39.138Z,80.61
2019-06-01T22:03:12.305Z,81.25
2019-06-01T22:05:44.411Z,81.23
2019-06-01T22:08:17.061Z,82.07
2019-06-01T22:10:48.977Z,81.97
2019-06-01T22:13:23.771Z,81.93
2019-06-01T22:15:52.804Z,82.03
2019-06-01T22:18:25.745Z,81.76
2019-06-01T22:20:56.338Z,82.59
2019-06-01T22:23:28.214Z,82.58
2019-06-01T22:25:59.735Z,82.73
2019-06-01T22:28:31.110Z,83.11
2019-06-01T22:31:02.597Z,82.92
2019-06-01T22:33:34.306Z,82.95
2019-06-01T22:36:05.901Z,82.20
2019-06-01T22:38:37.530Z,82.32
2019-06-01T22:41:08.960Z,82.07
2019-06-01T22:43:46.586Z,81.82
2019-06-01T22:46:13.591Z,81.10
2019-06-01T22:48:45.122Z,81.02
2019-06-01T22:51:16.670Z,81.39
2019-06-01T22:53:49.146Z,81.91
2019-06-01T22:56:21.248Z,80.97
2019-06-01T22:58:52.862Z,80.77
2019-06-01T23:01:24.726Z,81.08
2019-06-01T23:03:56.212Z,81.25
2019-06-01T23:06:29.221Z,81.11
2019-06-01T23:09:00.749Z,80.87
2019-06-01T23:11:33.787Z,81.79
2019-06-01T23:14:05.881Z,81.87
2019-06-01T23:16:37.212Z,82.16
2019-06-01T23:19:08.747Z,82.45
2019-06-01T23:21:40.185Z,81.98
2019-06-01T23:24:11.632Z,82.16
2019-06-01T23:26:43.186Z,82.08
2019-06-01T23:29:14.731Z,82.20
2019-06-01T23:31:46.095Z,82.74
2019-06-01T23:34:18.754Z,83.42
2019-06-01T23:36:50.318Z,83.52
2019-06-01T23:39:22.689Z,83.07
2019-06-01T23:41:54.494Z,82.94
2019-06-01T23:44:29.485Z,82.46
2019-06-01T23:46:59.650Z,81.79
2019-06-01T23:49:31.363Z,82.39
2019-06-01T23:52:02.928Z,82.65
2019-06-01T23:54:34.589Z,82.44
2019-06-01T23:57:06.104Z,82.93
2019-06-01T23:59:37.556Z,83.08
